FW3175 Weather Reports


Display with metric or nautical units.
time (UTC)temp
F
wind
direction
speed
MPH
gust
MPH
rain 1hr
in
rain 24hr
in
rain mn
in
humidity
%
barometer
mb
20210921060046 36 114 0.0 0.0 0.00 0.00 0.00 88 1019.7
20210921054527 36 105 0.0 0.0 0.00 0.00 0.00 88 1019.5
20210921053048 36 126 0.0 3.0 0.00 0.00 0.00 86 1019.3
20210921051555 37 90 0.0 2.0 0.00 0.00 0.00 81 1019.4
20210921050030 39 89 0.0 5.0 0.00 0.00 0.00 76 1019.0
20210921044509 40 106 0.0 9.0 0.00 0.00 0.00 70 1019.0
20210921043009 41 50 0.0 4.0 0.00 0.00 0.00 61 1018.8
20210921041511 42 196 0.0 4.0 0.00 0.00 0.00 55 1018.4
20210921040004 42 94 0.0 6.0 0.00 0.00 0.00 49 1018.4
20210921034505 42 96 0.0 2.0 0.00 0.00 0.00 45 1017.8
20210921033003 42 114 0.0 3.0 0.00 0.00 0.00 46 1017.6
20210921030149 42 92 0.0 0.0 0.00 0.00 0.00 49 1016.6
20210921023150 41 92 0.0 0.0 0.00 0.00 0.00 51 1015.6
20210921021631 42 92 0.0 1.0 0.00 0.00 0.00 49 1014.9
20210921020206 42 92 0.0 0.0 0.00 0.00 0.00 47 1014.5
20210921013057 43 90 0.0 2.0 0.00 0.00 0.00 45 1013.6
20210921011622 45 91 0.0 1.0 0.00 0.00 0.00 44 1012.9
20210921010054 47 91 0.0 1.0 0.00 0.00 0.00 41 1012.6
20210921003106 51 83 1.0 5.0 0.00 0.00 0.00 35 1011.4
20210921001549 52 109 1.0 5.0 0.00 0.00 0.00 34 1011.1
20210921000038 52 111 1.0 7.0 0.00 0.00 0.00 35 1010.6
20210920233043 51 101 1.0 6.0 0.00 0.00 0.00 36 1010.2
20210920231608 53 113 1.0 4.0 0.00 0.00 0.00 34 1009.6
20210920230034 52 98 2.0 8.0 0.00 0.00 0.00 35 1009.1
20210920223105 53 105 1.0 8.0 0.00 0.00 0.00 34 1008.8
20210920221612 53 175 1.0 9.0 0.00 0.00 0.00 35 1008.4
20210920220044 55 98 1.0 7.0 0.00 0.00 0.00 34 1008.2
20210920213054 55 269 1.0 8.0 0.00 0.00 0.00 35 1007.5
20210920211521 56 118 1.0 4.0 0.00 0.00 0.00 35 1007.2
20210920210021 58 200 1.0 8.0 0.00 0.00 0.00 33 1007.1
20210920203159 57 307 1.0 6.0 0.00 0.00 0.00 33 1007.2
20210920201606 56 76 4.0 10.0 0.00 0.00 0.00 35 1007.0
20210920200145 53 142 0.0 7.0 0.00 0.00 0.00 41 1007.1
20210920193013 53 103 5.0 16.0 0.00 0.00 0.00 40 1006.9
20210920191509 54 30 3.0 14.0 0.00 0.00 0.00 39 1006.6
20210920190008 55 22 1.0 11.0 0.00 0.00 0.00 40 1006.2
20210920183010 57 17 1.0 10.0 0.00 0.00 0.00 35 1006.0
20210920181504 56 286 6.0 18.0 0.00 0.00 0.00 31 1005.6
20210920180003 55 268 7.0 16.0 0.00 0.00 0.00 31 1005.3
20210920173005 54 267 5.0 11.0 0.00 0.00 0.00 37 1005.3
20210920171503 53 284 4.0 14.0 0.00 0.00 0.00 40 1005.1
20210920170132 52 279 11.0 22.0 0.00 0.00 0.00 39 1005.0
20210920163127 51 267 7.0 19.0 0.00 0.00 0.00 42 1005.0
20210920161652 50 296 4.0 20.0 0.00 0.00 0.00 45 1004.6
20210920160212 49 261 7.0 17.0 0.00 0.00 0.00 46 1004.5
20210920153124 48 269 8.0 20.0 0.00 0.00 0.00 50 1003.6
20210920151726 48 277 8.0 23.0 0.00 0.00 0.00 50 1003.0
20210920150121 47 281 9.0 19.0 0.00 0.00 0.00 51 1002.8
20210920143152 46 272 8.0 24.0 0.00 0.00 0.00 58 1002.4
20210920141717 45 281 8.0 20.0 0.00 0.00 0.00 60 1002.4
20210920140110 44 262 3.0 12.0 0.00 0.00 0.00 66 1001.7
20210920133056 0 0.0 0.0 0.00 0.00 0.00 1000.5
20210920131548 0 0.0 0.0 0.00 0.00 0.00 1000.1
20210920130048 0 0.0 0.0 0.00 0.00 0.00 1000.0
20210920123051 0 0.0 0.0 0.00 0.00 0.00 999.8
20210920121541 0 0.0 0.0 0.00 0.00 0.00 999.8
20210920120048 0 0.0 0.0 0.00 0.00 0.00 999.7
20210920113022 0 0.0 0.0 0.00 0.00 0.00 999.9
20210920111502 0 0.0 0.0 0.00 0.00 0.00 1000.4
20210920110131 0 0.0 0.0 0.00 0.00 0.00 1000.2
20210920103311 44 350 0.0 1.0 0.00 0.00 0.00 76 1001.0
20210920101601 44 63 0.0 1.0 0.00 0.00 0.00 76 1000.3
20210920100129 45 94 0.0 2.0 0.00 0.00 0.00 75 999.8
20210920093119 46 338 1.0 8.0 0.00 0.00 0.00 73 1000.0
20210920091606 46 107 0.0 5.0 0.00 0.00 0.00 69 1000.0
20210920090114 47 116 0.0 1.0 0.00 0.00 0.00 65 1000.1
20210920083043 49 105 2.0 9.0 0.00 0.00 0.00 55 999.3
20210920081607 52 113 4.0 11.0 0.00 0.00 0.00 43 998.3
20210920080049 54 112 0.0 4.0 0.00 0.00 0.00 39 998.2
20210920073049 56 91 1.0 4.0 0.00 0.00 0.00 37 998.2
20210920071530 57 299 0.0 4.0 0.00 0.00 0.00 35 998.1
20210920070109 58 211 3.0 12.0 0.00 0.00 0.00 34 997.8
20210920063018 58 284 5.0 14.0 0.00 0.00 0.00 32 997.6
20210920061531 59 262 10.0 26.0 0.00 0.00 0.00 31 997.3